createdAt,value
2022-08-12T00:02:06.989Z,17.94
2022-08-12T00:12:28.032Z,17.84
2022-08-12T00:22:52.899Z,17.71
2022-08-12T00:33:22.594Z,17.62
2022-08-12T00:43:29.298Z,17.51
2022-08-12T00:53:32.299Z,17.40
2022-08-12T01:03:58.605Z,17.33
2022-08-12T01:14:03.385Z,17.30
2022-08-12T01:24:30.565Z,17.17
2022-08-12T01:34:39.941Z,17.04
2022-08-12T01:44:42.181Z,16.88
2022-08-12T01:54:47.584Z,16.72
2022-08-12T02:05:35.599Z,16.56
2022-08-12T02:16:03.292Z,16.39
2022-08-12T02:26:08.541Z,16.14
2022-08-12T02:36:10.717Z,15.87
2022-08-12T02:46:16.149Z,15.58
2022-08-12T02:56:19.144Z,15.32
2022-08-12T03:06:24.047Z,15.08
2022-08-12T03:16:28.374Z,14.91
2022-08-12T03:26:31.255Z,14.71
2022-08-12T03:36:35.863Z,14.54
2022-08-12T03:47:00.713Z,14.35
2022-08-12T03:57:21.489Z,14.18
2022-08-12T04:07:24.061Z,13.98
2022-08-12T04:17:29.694Z,13.81
2022-08-12T04:27:32.840Z,13.66
2022-08-12T04:37:58.094Z,13.53
2022-08-12T04:47:58.026Z,13.44
2022-08-12T04:58:00.646Z,13.45
2022-08-12T05:08:03.337Z,13.55
2022-08-12T05:18:19.116Z,13.74
2022-08-12T05:28:24.609Z,14.00
2022-08-12T05:38:45.377Z,14.36
2022-08-12T05:48:49.776Z,14.73
2022-08-12T05:58:52.708Z,15.14
2022-08-12T06:08:56.064Z,15.59
2022-08-12T06:18:58.706Z,16.09
2022-08-12T06:29:01.507Z,16.70
2022-08-12T06:39:03.988Z,17.27
2022-08-12T06:49:07.315Z,17.95
2022-08-12T06:59:11.686Z,18.60
2022-08-12T07:10:04.540Z,19.24
2022-08-12T07:19:45.267Z,19.77
2022-08-12T07:29:58.114Z,20.22
2022-08-12T07:40:12.436Z,20.74
2022-08-12T07:50:23.713Z,21.50
2022-08-12T08:00:34.187Z,22.18
2022-08-12T08:10:40.082Z,22.98
2022-08-12T08:20:46.907Z,23.60
2022-08-12T08:30:52.180Z,24.16
2022-08-12T08:41:15.086Z,24.56
2022-08-12T08:51:41.092Z,24.97
2022-08-12T09:01:44.761Z,25.44
2022-08-12T09:22:35.089Z,25.85
2022-08-12T09:33:04.205Z,26.33
2022-08-12T09:43:20.557Z,26.70
2022-08-12T09:54:08.747Z,27.10
2022-08-12T10:04:12.220Z,27.35
2022-08-12T10:14:17.649Z,27.55
2022-08-12T10:24:40.930Z,27.86
2022-08-12T10:34:59.361Z,28.10
2022-08-12T10:45:08.988Z,28.47
2022-08-12T10:55:17.249Z,28.75
2022-08-12T11:07:06.906Z,28.96
2022-08-12T11:16:18.761Z,29.32
2022-08-12T11:26:14.553Z,29.69
2022-08-12T11:36:22.459Z,29.74
2022-08-12T11:46:28.803Z,29.99
2022-08-12T11:56:38.322Z,30.39
2022-08-12T12:06:41.872Z,30.69
2022-08-12T12:16:58.844Z,30.90
2022-08-12T12:27:06.422Z,31.38
2022-08-12T12:37:16.145Z,31.72
2022-08-12T12:47:30.082Z,32.08
2022-08-12T12:58:00.060Z,32.03
2022-08-12T13:08:35.919Z,32.43
2022-08-12T13:18:42.458Z,33.01
2022-08-12T13:28:56.095Z,33.28
2022-08-12T13:39:01.333Z,33.71
2022-08-12T13:49:11.002Z,34.40
2022-08-12T13:59:24.800Z,34.31
2022-08-12T14:09:32.819Z,35.08
2022-08-12T14:20:01.231Z,34.75
2022-08-12T14:30:15.736Z,34.92
2022-08-12T14:40:27.763Z,34.40
2022-08-12T14:50:58.164Z,35.07
2022-08-12T15:01:12.894Z,34.81
2022-08-12T15:11:21.762Z,33.81
2022-08-12T15:21:25.051Z,32.38
2022-08-12T15:32:01.360Z,31.14
2022-08-12T15:41:55.480Z,30.60
2022-08-12T15:52:04.658Z,30.03
2022-08-12T16:02:08.462Z,29.55
2022-08-12T16:12:12.275Z,29.21
2022-08-12T16:22:17.966Z,28.88
2022-08-12T16:32:24.405Z,28.58
2022-08-12T16:42:28.224Z,28.49
2022-08-12T16:52:32.366Z,28.06
2022-08-12T17:02:37.912Z,27.93
2022-08-12T17:12:44.061Z,27.68
2022-08-12T17:22:54.139Z,27.47
2022-08-12T17:33:02.509Z,27.21
2022-08-12T17:43:52.221Z,27.00
2022-08-12T17:54:05.658Z,26.67
2022-08-12T18:04:20.466Z,26.33
2022-08-12T18:14:28.002Z,25.90
2022-08-12T18:24:31.557Z,25.64
2022-08-12T18:34:37.942Z,25.37
2022-08-12T18:44:42.309Z,25.15
2022-08-12T18:54:55.709Z,24.93
2022-08-12T19:05:08.094Z,24.78
2022-08-12T19:15:13.252Z,24.35
2022-08-12T19:25:22.982Z,24.13
2022-08-12T19:36:07.325Z,23.98
2022-08-12T19:46:09.506Z,23.86
2022-08-12T19:56:13.149Z,23.50
2022-08-12T20:06:21.836Z,23.04
2022-08-12T20:16:50.608Z,22.82
2022-08-12T20:26:52.313Z,22.33
2022-08-12T20:37:05.262Z,21.91
2022-08-12T20:47:18.110Z,21.35
2022-08-12T20:57:23.440Z,20.90
2022-08-12T21:07:25.893Z,20.48
2022-08-12T21:17:33.902Z,20.07
2022-08-12T21:27:58.676Z,19.72
2022-08-12T21:38:06.855Z,19.38
2022-08-12T21:48:11.822Z,19.15
2022-08-12T21:58:21.332Z,18.85
2022-08-12T22:08:26.200Z,18.61
2022-08-12T22:18:28.651Z,18.36
2022-08-12T22:28:59.128Z,18.18
2022-08-12T22:39:01.448Z,17.94
2022-08-12T22:49:06.691Z,17.71
2022-08-12T22:59:11.850Z,17.50
2022-08-12T23:09:17.561Z,17.29
2022-08-12T23:19:36.192Z,17.14
2022-08-12T23:29:43.862Z,17.02
2022-08-12T23:40:14.085Z,16.97
2022-08-12T23:50:18.854Z,16.94
